createdAt,value
2023-01-31T00:04:18.227Z,3.00
2023-01-31T00:10:20.096Z,3.10
2023-01-31T00:16:23.278Z,3.10
2023-01-31T00:22:25.131Z,3.00
2023-01-31T00:28:26.880Z,2.90
2023-01-31T00:34:28.769Z,3.10
2023-01-31T00:40:30.577Z,3.30
2023-01-31T00:46:32.414Z,3.50
2023-01-31T00:52:35.174Z,3.70
2023-01-31T00:58:39.558Z,3.70
2023-01-31T01:04:41.758Z,3.60
2023-01-31T01:10:43.582Z,3.50
2023-01-31T01:16:45.513Z,3.50
2023-01-31T01:22:47.593Z,3.60
2023-01-31T01:28:50.481Z,3.60
2023-01-31T01:34:52.296Z,3.60
2023-01-31T01:40:54.069Z,3.60
2023-01-31T01:46:57.150Z,3.50
2023-01-31T01:53:05.310Z,3.60
2023-01-31T01:59:16.705Z,3.60
2023-01-31T02:05:24.193Z,3.60
2023-01-31T02:11:29.775Z,3.70
2023-01-31T02:17:32.928Z,3.70
2023-01-31T02:23:53.436Z,3.80
2023-01-31T02:30:12.092Z,3.70
2023-01-31T02:36:23.643Z,3.80
2023-01-31T02:42:58.539Z,3.90
2023-01-31T02:49:12.278Z,3.90
2023-01-31T02:55:57.818Z,3.90
2023-01-31T03:02:03.261Z,3.90
2023-01-31T03:08:06.568Z,3.90
2023-01-31T03:14:24.621Z,3.90
2023-01-31T03:20:38.129Z,3.90
2023-01-31T03:26:40.571Z,3.80
2023-01-31T03:33:06.353Z,3.80
2023-01-31T03:39:32.728Z,3.80
2023-01-31T03:45:57.887Z,3.70
2023-01-31T03:52:06.385Z,3.50
2023-01-31T03:58:10.843Z,3.40
2023-01-31T04:04:42.635Z,3.30
2023-01-31T04:10:45.047Z,3.20
2023-01-31T04:16:46.850Z,3.20
2023-01-31T04:22:48.713Z,3.30
2023-01-31T04:28:52.815Z,3.30
2023-01-31T04:34:54.864Z,3.40
2023-01-31T04:40:56.765Z,3.40
2023-01-31T04:46:58.534Z,3.50
2023-01-31T04:53:00.438Z,3.50
2023-01-31T04:59:02.388Z,3.50
2023-01-31T05:05:05.807Z,3.50
2023-01-31T05:11:08.685Z,3.50
2023-01-31T05:17:10.895Z,3.50
2023-01-31T05:23:13.455Z,3.50
2023-01-31T05:29:15.360Z,3.40
2023-01-31T05:35:17.546Z,3.40
2023-01-31T05:41:19.415Z,3.40
2023-01-31T05:47:23.507Z,3.40
2023-01-31T05:53:25.267Z,3.40
2023-01-31T05:59:29.998Z,3.40
2023-01-31T06:05:32.061Z,3.40
2023-01-31T06:11:33.973Z,3.40
2023-01-31T06:17:36.418Z,3.40
2023-01-31T06:23:38.379Z,3.30
2023-01-31T06:29:40.235Z,3.40
2023-01-31T06:35:42.398Z,3.40
2023-01-31T06:41:44.266Z,3.30
2023-01-31T06:47:46.176Z,3.40
2023-01-31T06:53:47.963Z,3.50
2023-01-31T06:59:49.706Z,3.50
2023-01-31T07:05:51.519Z,3.50
2023-01-31T07:11:53.604Z,3.50
2023-01-31T07:17:59.576Z,3.50
2023-01-31T07:24:01.333Z,3.50
2023-01-31T07:30:03.279Z,3.60
2023-01-31T07:36:06.891Z,3.70
2023-01-31T07:42:08.730Z,3.90
2023-01-31T07:48:12.176Z,3.90
2023-01-31T07:54:14.063Z,3.90
2023-01-31T08:00:35.119Z,3.90
2023-01-31T08:06:38.407Z,3.80
2023-01-31T08:12:40.173Z,3.90
2023-01-31T08:18:42.287Z,3.90
2023-01-31T08:24:44.421Z,3.90
2023-01-31T08:30:52.845Z,4.00
2023-01-31T08:37:01.309Z,4.00
2023-01-31T08:43:03.129Z,4.20
2023-01-31T08:49:07.162Z,4.30
2023-01-31T08:55:13.621Z,4.30
2023-01-31T09:01:18.208Z,4.40
2023-01-31T09:07:21.740Z,4.40
2023-01-31T09:13:24.476Z,4.50
2023-01-31T09:19:26.422Z,4.70
2023-01-31T09:25:43.733Z,4.80
2023-01-31T09:31:52.014Z,5.00
2023-01-31T09:37:54.142Z,5.20
2023-01-31T09:44:07.096Z,5.40
2023-01-31T09:50:22.633Z,5.60
2023-01-31T09:56:30.844Z,5.60
2023-01-31T10:02:46.106Z,5.70
2023-01-31T10:08:54.773Z,5.70
2023-01-31T10:15:01.477Z,5.70
2023-01-31T10:21:12.497Z,5.50
2023-01-31T10:27:44.753Z,5.20
2023-01-31T10:34:17.489Z,5.10
2023-01-31T10:40:40.171Z,5.00
2023-01-31T10:46:42.061Z,5.10
2023-01-31T10:53:01.189Z,5.00
2023-01-31T10:59:07.630Z,5.00
2023-01-31T11:05:20.017Z,4.90
2023-01-31T11:11:24.790Z,4.90
2023-01-31T11:17:34.189Z,4.70
2023-01-31T11:23:37.187Z,4.60
2023-01-31T11:29:40.575Z,4.60
2023-01-31T11:35:51.975Z,4.50
2023-01-31T11:41:54.180Z,4.40
2023-01-31T11:47:58.606Z,4.50
2023-01-31T11:54:03.884Z,4.60
2023-01-31T12:00:20.137Z,4.60
2023-01-31T12:06:39.182Z,4.70
2023-01-31T12:12:46.108Z,4.80
2023-01-31T12:19:15.592Z,4.80
2023-01-31T12:25:28.311Z,4.60
2023-01-31T12:31:40.745Z,4.60
2023-01-31T12:38:01.253Z,4.60
2023-01-31T12:44:41.027Z,4.50
2023-01-31T12:51:03.082Z,4.50
2023-01-31T12:57:21.405Z,4.50
2023-01-31T13:03:39.132Z,4.50
2023-01-31T13:09:41.238Z,4.60
2023-01-31T13:16:36.970Z,4.60
2023-01-31T13:22:41.543Z,4.50
2023-01-31T13:29:04.760Z,4.50
2023-01-31T13:35:23.518Z,4.50
2023-01-31T13:41:31.664Z,4.40
2023-01-31T13:47:48.626Z,4.50
2023-01-31T13:54:04.335Z,4.40
2023-01-31T14:00:41.906Z,4.40
2023-01-31T14:06:52.903Z,4.50
2023-01-31T14:13:24.645Z,4.70
2023-01-31T14:19:30.796Z,4.70
2023-01-31T14:25:41.856Z,4.80
2023-01-31T14:31:45.329Z,4.80
2023-01-31T14:38:15.387Z,4.80
2023-01-31T14:44:32.196Z,4.80
2023-01-31T14:50:43.634Z,4.80
2023-01-31T14:56:53.688Z,4.90
2023-01-31T15:03:01.483Z,5.00
2023-01-31T15:09:15.881Z,5.00
2023-01-31T15:15:41.812Z,5.10
2023-01-31T15:21:51.217Z,5.00
2023-01-31T15:27:56.764Z,5.20
2023-01-31T15:34:05.410Z,5.20
2023-01-31T15:40:21.321Z,5.20
2023-01-31T15:53:15.179Z,5.30
2023-01-31T15:59:18.937Z,5.40
2023-01-31T16:05:22.357Z,5.40
2023-01-31T16:11:26.207Z,5.50
2023-01-31T16:17:29.077Z,5.40
2023-01-31T16:23:36.089Z,5.60
2023-01-31T16:29:42.565Z,5.60
2023-01-31T16:35:44.397Z,5.70
2023-01-31T16:41:51.809Z,5.80
2023-01-31T16:48:28.463Z,6.00
2023-01-31T16:54:45.132Z,6.00
2023-01-31T17:00:51.278Z,6.00
2023-01-31T17:07:04.838Z,6.10
2023-01-31T17:13:31.021Z,6.20
2023-01-31T17:19:32.761Z,6.20
2023-01-31T17:25:36.492Z,6.10
2023-01-31T17:31:38.307Z,6.10
2023-01-31T17:37:40.057Z,6.20
2023-01-31T17:43:42.563Z,6.20
2023-01-31T17:49:45.275Z,6.30
2023-01-31T17:55:47.460Z,6.30
2023-01-31T18:01:49.257Z,6.20
2023-01-31T18:07:51.455Z,6.20
2023-01-31T18:13:53.229Z,6.10
2023-01-31T18:19:57.798Z,6.10
2023-01-31T18:25:59.492Z,6.10
2023-01-31T18:32:03.311Z,6.00
2023-01-31T18:38:06.778Z,5.70
2023-01-31T18:44:08.827Z,5.50
2023-01-31T18:50:11.112Z,5.30
2023-01-31T18:56:18.499Z,5.30
2023-01-31T19:02:20.317Z,5.30
2023-01-31T19:08:22.028Z,5.40
2023-01-31T19:14:23.819Z,5.30
2023-01-31T19:20:25.671Z,5.30
2023-01-31T19:26:28.583Z,5.30
2023-01-31T19:32:31.227Z,5.40
2023-01-31T19:38:33.000Z,5.40
2023-01-31T19:44:34.749Z,5.30
2023-01-31T19:50:36.519Z,5.50
2023-01-31T19:56:38.331Z,5.40
2023-01-31T20:02:44.104Z,5.50
2023-01-31T20:08:50.451Z,5.50
2023-01-31T20:14:52.174Z,5.40
2023-01-31T20:20:54.138Z,5.40
2023-01-31T20:26:56.080Z,5.40
2023-01-31T20:32:57.807Z,5.40
2023-01-31T20:38:59.559Z,5.50
2023-01-31T20:45:01.280Z,5.60
2023-01-31T20:51:03.321Z,5.50
2023-01-31T20:57:05.045Z,5.50
2023-01-31T21:03:06.875Z,5.60
2023-01-31T21:09:09.606Z,5.60
2023-01-31T21:15:11.578Z,5.50
2023-01-31T21:21:22.669Z,5.50
2023-01-31T21:27:24.599Z,5.50
2023-01-31T21:33:28.053Z,5.30
2023-01-31T21:39:29.989Z,5.10
2023-01-31T21:45:40.488Z,5.10
2023-01-31T21:51:42.345Z,5.00
2023-01-31T21:57:44.853Z,5.10
2023-01-31T22:03:49.316Z,5.10
2023-01-31T22:09:51.029Z,5.00
2023-01-31T22:15:52.901Z,5.10
2023-01-31T22:21:54.648Z,5.00
2023-01-31T22:27:57.871Z,4.90
2023-01-31T22:34:00.355Z,4.90
2023-01-31T22:40:02.239Z,4.90
2023-01-31T22:46:05.051Z,4.90
2023-01-31T22:52:06.844Z,4.90
2023-01-31T22:58:09.603Z,5.00
2023-01-31T23:04:11.550Z,5.10
2023-01-31T23:10:13.353Z,5.00
2023-01-31T23:16:18.573Z,5.00
2023-01-31T23:22:20.348Z,5.00
2023-01-31T23:28:22.078Z,5.00
2023-01-31T23:34:23.905Z,4.80
2023-01-31T23:40:25.685Z,4.80
2023-01-31T23:46:27.489Z,4.80
2023-01-31T23:52:29.252Z,5.00
2023-01-31T23:58:30.969Z,5.20
